createdAt,value
2022-08-31T00:00:15.834Z,16.4
2022-08-31T00:01:07.807Z,16.4
2022-08-31T00:02:16.119Z,16.6
2022-08-31T00:03:15.419Z,16.8
2022-08-31T00:04:09.665Z,16.8
2022-08-31T00:05:16.435Z,16.6
2022-08-31T00:06:17.690Z,16.6
2022-08-31T00:07:13.219Z,16.6
2022-08-31T00:08:14.038Z,16.5
2022-08-31T00:09:21.306Z,16.5
2022-08-31T00:10:07.881Z,16.5
2022-08-31T00:11:13.803Z,16.4
2022-08-31T00:12:15.514Z,16.4
2022-08-31T00:13:11.241Z,16.4
2022-08-31T00:14:19.171Z,16.3
2022-08-31T00:15:07.330Z,16.3
2022-08-31T00:16:14.662Z,16.4
2022-08-31T00:17:25.554Z,16.4
2022-08-31T00:18:07.340Z,16.4
2022-08-31T00:19:14.012Z,16.4
2022-08-31T00:20:37.134Z,16.4
2022-08-31T00:21:15.219Z,16.4
2022-08-31T00:22:12.269Z,16.4
2022-08-31T00:23:12.629Z,16.4
2022-08-31T00:24:15.606Z,16.4
2022-08-31T00:25:16.695Z,16.4
2022-08-31T00:26:17.778Z,16.4
2022-08-31T00:27:08.205Z,16.4
2022-08-31T00:28:18.011Z,16.4
2022-08-31T00:29:15.689Z,16.4
2022-08-31T00:30:17.072Z,16.4
2022-08-31T00:31:14.888Z,16.4
2022-08-31T00:32:14.900Z,16.6
2022-08-31T00:33:12.608Z,16.6
2022-08-31T00:34:14.547Z,16.7
2022-08-31T00:35:17.838Z,16.7
2022-08-31T00:36:17.214Z,16.8
2022-08-31T00:37:18.653Z,16.8
2022-08-31T00:38:08.452Z,16.8
2022-08-31T00:39:19.467Z,16.8
2022-08-31T00:40:11.080Z,16.8
2022-08-31T00:41:17.448Z,16.9
2022-08-31T00:42:07.773Z,16.9
2022-08-31T00:43:15.412Z,16.6
2022-08-31T00:44:16.486Z,16.6
2022-08-31T00:45:11.729Z,16.5
2022-08-31T00:46:07.499Z,16.4
2022-08-31T00:47:13.683Z,16.4
2022-08-31T00:48:16.272Z,16.4
2022-08-31T00:49:17.716Z,16.6
2022-08-31T00:50:14.621Z,16.7
2022-08-31T00:51:20.963Z,16.7
2022-08-31T00:52:08.220Z,16.7
2022-08-31T00:53:19.090Z,16.7
2022-08-31T00:54:15.303Z,16.7
2022-08-31T00:55:15.668Z,16.7
2022-08-31T00:56:15.770Z,16.7
2022-08-31T00:57:15.827Z,16.8
2022-08-31T00:58:14.122Z,16.8
2022-08-31T00:59:16.617Z,16.8
2022-08-31T01:00:17.101Z,16.8
2022-08-31T01:01:17.368Z,16.8
2022-08-31T01:02:09.442Z,16.8
2022-08-31T01:03:13.408Z,16.8
2022-08-31T01:04:13.141Z,16.8
2022-08-31T01:05:14.317Z,16.8
2022-08-31T01:06:08.291Z,16.8
2022-08-31T01:07:15.198Z,16.7
2022-08-31T01:08:11.494Z,16.7
2022-08-31T01:09:15.116Z,16.7
2022-08-31T01:10:10.226Z,16.8
2022-08-31T01:11:12.098Z,16.8
2022-08-31T01:12:13.399Z,16.8
2022-08-31T01:13:14.041Z,16.7
2022-08-31T01:14:12.605Z,16.6
2022-08-31T01:15:16.095Z,16.6
2022-08-31T01:16:15.534Z,16.6
2022-08-31T01:17:13.860Z,16.7
2022-08-31T01:18:21.925Z,16.6
2022-08-31T01:19:07.208Z,16.6
2022-08-31T01:20:14.787Z,16.6
2022-08-31T01:21:15.141Z,16.7
2022-08-31T01:22:12.547Z,16.7
2022-08-31T01:24:07.433Z,16.8
2022-08-31T01:25:15.383Z,16.8
2022-08-31T01:26:13.079Z,16.8
2022-08-31T01:27:16.286Z,16.6
2022-08-31T01:28:12.070Z,16.4
2022-08-31T01:29:19.386Z,16.3
2022-08-31T01:30:11.646Z,16.3
2022-08-31T01:31:14.399Z,16.3
2022-08-31T01:32:13.260Z,16.3
2022-08-31T01:33:15.517Z,16.4
2022-08-31T01:34:13.735Z,16.3
2022-08-31T01:35:15.786Z,16.3
2022-08-31T01:36:18.299Z,16.3
2022-08-31T01:37:17.673Z,16.3
2022-08-31T01:38:11.043Z,16.2
2022-08-31T01:39:15.111Z,16.2
2022-08-31T01:40:09.873Z,16.2
2022-08-31T01:41:18.663Z,16.1
2022-08-31T01:42:14.306Z,16.1
2022-08-31T01:43:12.712Z,16.1
2022-08-31T01:44:12.865Z,16.1
2022-08-31T01:45:16.267Z,16.1
2022-08-31T01:46:14.903Z,16.1
2022-08-31T01:47:15.120Z,16.1
2022-08-31T01:48:14.558Z,16.1
2022-08-31T01:49:12.699Z,16.1
2022-08-31T01:50:13.357Z,16.1
2022-08-31T01:51:16.678Z,16.2
2022-08-31T01:52:09.715Z,16.2
2022-08-31T01:53:17.983Z,16.4
2022-08-31T01:54:07.637Z,16.4
2022-08-31T01:55:12.483Z,16.4
2022-08-31T01:56:12.549Z,16.5
2022-08-31T01:57:14.642Z,16.5
2022-08-31T01:58:15.304Z,16.5
2022-08-31T01:59:15.658Z,16.6
2022-08-31T02:00:12.748Z,16.6
2022-08-31T02:01:38.741Z,16.6
2022-08-31T02:02:14.809Z,16.6
2022-08-31T02:03:13.968Z,16.6
2022-08-31T02:04:13.223Z,16.6
2022-08-31T02:05:13.038Z,16.6
2022-08-31T02:06:13.601Z,16.6
2022-08-31T02:07:13.923Z,16.6
2022-08-31T02:08:17.066Z,16.6
2022-08-31T02:09:13.398Z,16.3
2022-08-31T02:10:09.721Z,16.3
2022-08-31T02:11:16.295Z,16.2
2022-08-31T02:12:08.792Z,16.2
2022-08-31T02:13:15.884Z,16.1
2022-08-31T02:14:14.293Z,16.1
2022-08-31T02:15:13.364Z,16.1
2022-08-31T02:16:16.553Z,16
2022-08-31T02:17:10.368Z,16
2022-08-31T02:18:07.650Z,16.1
2022-08-31T02:19:15.619Z,16
2022-08-31T02:20:13.110Z,16
2022-08-31T02:21:12.264Z,16
2022-08-31T02:22:14.039Z,16
2022-08-31T02:23:13.735Z,15.9
2022-08-31T02:24:13.403Z,15.9
2022-08-31T02:25:13.706Z,16
2022-08-31T02:26:14.712Z,16.1
2022-08-31T02:27:14.613Z,16.1
2022-08-31T02:28:15.609Z,16.1
2022-08-31T02:29:10.345Z,16.1
2022-08-31T02:30:15.548Z,16.2
2022-08-31T02:31:13.098Z,16.2
2022-08-31T02:32:22.384Z,16.3
2022-08-31T02:33:15.869Z,16.3
2022-08-31T02:34:14.962Z,16.3
2022-08-31T02:35:14.989Z,16.3
2022-08-31T02:36:14.049Z,16.3
2022-08-31T02:37:15.172Z,16.2
2022-08-31T02:38:16.423Z,16.2
2022-08-31T02:39:20.651Z,16.3
2022-08-31T02:40:16.902Z,16.3
2022-08-31T02:41:08.468Z,16.3
2022-08-31T02:42:16.925Z,16.4
2022-08-31T02:43:26.862Z,16.4
2022-08-31T02:44:15.512Z,16.5
2022-08-31T02:45:13.811Z,16.5
2022-08-31T02:46:14.179Z,16.6
2022-08-31T02:47:16.934Z,16.6
2022-08-31T02:48:07.815Z,16.6
2022-08-31T02:49:14.514Z,16.5
2022-08-31T02:50:09.980Z,16.5
2022-08-31T02:51:14.699Z,16.5
2022-08-31T02:52:15.910Z,16.5
2022-08-31T02:53:15.494Z,16.4
2022-08-31T02:54:09.170Z,16.4
2022-08-31T02:55:14.502Z,16.4
2022-08-31T02:56:13.390Z,16.5
2022-08-31T02:57:15.374Z,16.4
2022-08-31T02:58:09.052Z,16.3
2022-08-31T02:59:14.046Z,16.3
2022-08-31T03:00:15.492Z,16.4
2022-08-31T03:01:12.225Z,16.4
2022-08-31T03:02:09.332Z,16.4
2022-08-31T03:03:16.303Z,16.4
2022-08-31T03:04:12.911Z,16.4
2022-08-31T03:05:13.979Z,16.3
2022-08-31T03:06:07.050Z,16.3
2022-08-31T03:07:12.705Z,16.3
2022-08-31T03:08:12.730Z,16.3
2022-08-31T03:09:16.513Z,16.3
2022-08-31T03:10:07.557Z,16.3
2022-08-31T03:11:15.518Z,16.2
2022-08-31T03:12:13.865Z,16.1
2022-08-31T03:13:13.950Z,16.1
2022-08-31T03:14:14.562Z,16.2
2022-08-31T03:15:08.205Z,16.2
2022-08-31T03:16:15.062Z,16.2
2022-08-31T03:17:15.137Z,16.2
2022-08-31T03:18:12.185Z,16.1
2022-08-31T03:19:16.986Z,16
2022-08-31T03:20:10.060Z,16
2022-08-31T03:21:17.921Z,15.9
2022-08-31T03:22:07.149Z,15.9
2022-08-31T03:23:14.052Z,15.8
2022-08-31T03:24:13.019Z,15.9
2022-08-31T03:25:16.002Z,15.8
2022-08-31T03:26:10.716Z,15.8
2022-08-31T03:27:16.876Z,15.9
2022-08-31T03:28:10.672Z,15.8
2022-08-31T03:29:17.821Z,15.8
2022-08-31T03:30:06.839Z,15.8
2022-08-31T03:31:15.175Z,15.8
2022-08-31T03:32:13.345Z,15.9
2022-08-31T03:33:15.131Z,15.9
2022-08-31T03:34:17.974Z,15.9
2022-08-31T03:35:09.741Z,16
2022-08-31T03:36:11.440Z,16.1
2022-08-31T03:37:14.736Z,16.1
2022-08-31T03:38:14.139Z,16.1
2022-08-31T03:39:17.853Z,16.3
2022-08-31T03:40:08.570Z,16.3
2022-08-31T03:41:13.820Z,16.3
2022-08-31T03:42:11.948Z,16.3
2022-08-31T03:43:14.365Z,16.3
2022-08-31T03:44:13.166Z,16.3
2022-08-31T03:45:09.501Z,16.4
2022-08-31T03:46:16.658Z,16.4
2022-08-31T03:47:11.071Z,16.4
2022-08-31T03:48:17.399Z,16.4
2022-08-31T03:49:15.261Z,16.4
2022-08-31T03:50:14.235Z,16.4
2022-08-31T03:51:07.417Z,16.4
2022-08-31T03:52:15.743Z,16.4
2022-08-31T03:53:14.557Z,16.5
2022-08-31T03:54:16.517Z,16.5
2022-08-31T03:55:12.087Z,16.5
2022-08-31T03:56:23.778Z,16.5
2022-08-31T03:57:07.599Z,16.5
2022-08-31T03:58:16.990Z,16.6
2022-08-31T03:59:12.117Z,16.6
2022-08-31T04:00:13.443Z,16.6
2022-08-31T04:01:13.185Z,16.6
2022-08-31T04:02:11.838Z,16.6
2022-08-31T04:03:16.041Z,16.6
2022-08-31T04:04:09.423Z,16.6
2022-08-31T04:05:12.387Z,16.6
2022-08-31T04:06:11.728Z,16.6
2022-08-31T04:07:14.402Z,16.6
2022-08-31T04:08:11.474Z,16.6
2022-08-31T04:09:15.931Z,16.6
2022-08-31T04:10:09.800Z,16.6
2022-08-31T04:11:13.226Z,16.6
2022-08-31T04:12:12.600Z,16.6
2022-08-31T04:13:14.035Z,16.6
2022-08-31T04:14:17.610Z,16.6
2022-08-31T04:15:14.297Z,16.6
2022-08-31T04:16:14.663Z,16.6
2022-08-31T04:17:15.245Z,16.6
2022-08-31T04:18:08.353Z,16.6
2022-08-31T04:19:16.945Z,16.4
2022-08-31T04:20:07.241Z,16.4
2022-08-31T04:21:16.348Z,16.4
2022-08-31T04:22:13.488Z,16.4
2022-08-31T04:23:14.183Z,16.3
2022-08-31T04:24:14.990Z,16.3
2022-08-31T04:25:25.715Z,16.3
2022-08-31T04:26:06.038Z,16.2
2022-08-31T04:27:13.497Z,16.2
2022-08-31T04:28:14.955Z,16.2
2022-08-31T04:29:16.887Z,16.3
2022-08-31T04:30:14.128Z,16.3
2022-08-31T04:31:14.717Z,16.3
2022-08-31T04:32:12.453Z,16.3
2022-08-31T04:33:11.979Z,16.3
2022-08-31T04:34:16.852Z,16.3
2022-08-31T04:35:15.714Z,16.3
2022-08-31T04:36:16.530Z,16.3
2022-08-31T04:37:10.774Z,16.3
2022-08-31T04:38:14.579Z,16.2
2022-08-31T04:39:13.501Z,16.2
2022-08-31T04:40:13.698Z,16.3
2022-08-31T04:41:11.795Z,16.3
2022-08-31T04:42:15.549Z,16.4
2022-08-31T04:43:15.932Z,16.4
2022-08-31T04:44:19.280Z,16.4
2022-08-31T04:45:17.857Z,16.4
2022-08-31T04:46:11.051Z,16.4
2022-08-31T04:47:14.374Z,16.3
2022-08-31T04:48:10.688Z,16.2
2022-08-31T04:49:12.461Z,16.2
2022-08-31T04:50:13.889Z,16.2
2022-08-31T04:51:13.597Z,16.1
2022-08-31T04:52:16.119Z,16.1
2022-08-31T04:53:08.353Z,16.1
2022-08-31T04:54:14.868Z,16
2022-08-31T04:55:12.934Z,16
2022-08-31T04:56:14.986Z,16.1
2022-08-31T04:57:07.360Z,16.1
2022-08-31T04:58:12.338Z,16.1
2022-08-31T04:59:12.321Z,16.1
2022-08-31T05:00:21.082Z,16.1
2022-08-31T05:01:14.318Z,16.2
2022-08-31T05:02:11.832Z,16.1
2022-08-31T05:03:14.008Z,16.1
2022-08-31T05:04:16.152Z,16.1
2022-08-31T05:05:05.696Z,16.2
2022-08-31T05:06:18.149Z,16.2
2022-08-31T05:07:14.735Z,16.2
2022-08-31T05:08:15.773Z,16.3
2022-08-31T05:09:07.587Z,16.3
2022-08-31T05:10:17.137Z,16.3
2022-08-31T05:11:12.707Z,16.3
2022-08-31T05:12:16.451Z,16.4
2022-08-31T05:13:14.354Z,16.4
2022-08-31T05:14:17.082Z,16.5
2022-08-31T05:15:15.491Z,16.5
2022-08-31T05:16:13.489Z,16.4
2022-08-31T05:17:19.169Z,16.4
2022-08-31T05:18:14.495Z,16.4
2022-08-31T05:19:09.928Z,16.4
2022-08-31T05:20:15.305Z,16.4
2022-08-31T05:21:09.975Z,16.4
2022-08-31T05:22:15.161Z,16.5
2022-08-31T05:23:07.014Z,16.5
2022-08-31T05:24:10.907Z,16.5
2022-08-31T05:25:12.630Z,16.6
2022-08-31T05:26:13.715Z,16.6
2022-08-31T05:27:12.414Z,16.6
2022-08-31T05:28:12.351Z,16.6
2022-08-31T05:29:11.896Z,16.6
2022-08-31T05:30:10.086Z,16.6
2022-08-31T05:31:14.180Z,16.6
2022-08-31T05:32:11.630Z,16.6
2022-08-31T05:33:12.033Z,16.6
2022-08-31T05:34:14.718Z,16.6
2022-08-31T05:35:13.728Z,16.6
2022-08-31T05:36:15.838Z,16.6
2022-08-31T05:37:12.821Z,16.6
2022-08-31T05:38:14.684Z,16.6
2022-08-31T05:39:15.033Z,16.7
2022-08-31T05:40:16.495Z,16.7
2022-08-31T05:41:17.275Z,16.8
2022-08-31T05:42:14.958Z,16.8
2022-08-31T05:43:17.887Z,16.8
2022-08-31T05:44:14.772Z,16.8
2022-08-31T05:45:13.652Z,16.8
2022-08-31T05:46:15.455Z,16.8
2022-08-31T05:47:10.249Z,16.8
2022-08-31T05:48:13.673Z,16.8
2022-08-31T05:49:13.606Z,16.9
2022-08-31T05:50:12.799Z,16.9
2022-08-31T05:51:17.244Z,16.9
2022-08-31T05:52:16.426Z,16.9
2022-08-31T05:53:13.788Z,16.9
2022-08-31T05:54:13.417Z,16.9
2022-08-31T05:55:14.315Z,16.9
2022-08-31T05:56:11.024Z,16.9
2022-08-31T05:57:13.620Z,16.9
2022-08-31T05:58:15.859Z,16.9
2022-08-31T05:59:09.467Z,16.9
2022-08-31T06:00:11.573Z,16.9
2022-08-31T06:01:16.061Z,16.9
2022-08-31T06:02:12.804Z,16.9
2022-08-31T06:03:08.703Z,16.9
2022-08-31T06:04:16.678Z,16.9
2022-08-31T06:05:14.468Z,16.9
2022-08-31T06:06:15.594Z,17
2022-08-31T06:07:12.427Z,17
2022-08-31T06:08:19.610Z,16.9
2022-08-31T06:09:15.519Z,16.9
2022-08-31T06:10:09.283Z,16.9
2022-08-31T06:11:14.477Z,17.1
2022-08-31T06:12:11.286Z,17.1
2022-08-31T06:13:16.346Z,17.1
2022-08-31T06:14:14.893Z,17
2022-08-31T06:15:17.280Z,17
2022-08-31T06:16:07.688Z,17.1
2022-08-31T06:17:16.463Z,17.1
2022-08-31T06:18:11.364Z,17.1
2022-08-31T06:19:13.620Z,17
2022-08-31T06:20:19.979Z,17
2022-08-31T06:21:16.819Z,17
2022-08-31T06:22:13.686Z,17.1
2022-08-31T06:23:14.541Z,17.1
2022-08-31T06:24:16.473Z,17.1
2022-08-31T06:25:12.720Z,17.1
2022-08-31T06:26:15.875Z,17.1
2022-08-31T06:27:13.799Z,17.1
2022-08-31T06:28:08.727Z,17.1
2022-08-31T06:29:18.119Z,17
2022-08-31T06:30:14.455Z,17
2022-08-31T06:31:14.094Z,17.1
2022-08-31T06:32:14.317Z,17
2022-08-31T06:33:56.873Z,17.1
2022-08-31T06:35:14.907Z,17.1
2022-08-31T06:36:11.898Z,17.1
2022-08-31T06:37:23.170Z,17
2022-08-31T06:38:13.486Z,17
2022-08-31T06:39:16.028Z,17
2022-08-31T06:40:14.275Z,17.1
2022-08-31T06:41:13.115Z,17.1
2022-08-31T06:42:18.978Z,17.1
2022-08-31T06:43:09.570Z,17.1
2022-08-31T06:44:13.965Z,17.1
2022-08-31T06:45:08.729Z,17.1
2022-08-31T06:46:15.510Z,17.1
2022-08-31T06:47:15.345Z,17.1
2022-08-31T06:48:15.326Z,17.1
2022-08-31T06:49:13.978Z,17.1
2022-08-31T06:50:19.756Z,17.2
2022-08-31T06:51:13.014Z,17.1
2022-08-31T06:52:12.512Z,17.2
2022-08-31T06:53:12.339Z,17.1
2022-08-31T06:54:33.108Z,17.2
2022-08-31T06:55:13.852Z,17.2
2022-08-31T06:56:25.279Z,17.3
2022-08-31T06:57:07.784Z,17.3
2022-08-31T06:58:15.936Z,17.2
2022-08-31T06:59:15.659Z,17.3
2022-08-31T07:00:21.481Z,17.3
2022-08-31T07:01:07.843Z,17.3
2022-08-31T07:02:15.729Z,17.3
2022-08-31T07:03:10.647Z,17.3
2022-08-31T07:04:16.333Z,17.3
2022-08-31T07:05:24.299Z,17.3
2022-08-31T07:06:08.742Z,17.3
2022-08-31T07:07:11.921Z,17.3
2022-08-31T07:08:13.280Z,17.3
2022-08-31T07:09:16.247Z,17.3
2022-08-31T07:10:09.949Z,17.3
2022-08-31T07:11:16.418Z,17.2
2022-08-31T07:12:16.003Z,17.3
2022-08-31T07:13:15.525Z,17.3
2022-08-31T07:14:15.166Z,17.3
2022-08-31T07:15:14.749Z,17.3
2022-08-31T07:16:15.796Z,17.3
2022-08-31T07:17:10.206Z,17.3
2022-08-31T07:18:14.864Z,17.3
2022-08-31T07:19:14.075Z,17.4
2022-08-31T07:20:13.914Z,17.4
2022-08-31T07:21:16.569Z,17.4
2022-08-31T07:22:06.890Z,17.4
2022-08-31T07:23:14.450Z,17.4
2022-08-31T07:24:13.070Z,17.4
2022-08-31T07:25:14.646Z,17.4
2022-08-31T07:26:11.672Z,17.4
2022-08-31T07:27:15.862Z,17.4
2022-08-31T07:28:16.372Z,17.4
2022-08-31T07:29:16.837Z,17.4
2022-08-31T07:30:09.220Z,17.4
2022-08-31T07:31:18.263Z,17.4
2022-08-31T07:32:12.022Z,17.4
2022-08-31T07:33:20.049Z,17.4
2022-08-31T07:34:10.254Z,17.4
2022-08-31T07:35:11.519Z,17.5
2022-08-31T07:36:15.821Z,17.5
2022-08-31T07:37:13.115Z,17.5
2022-08-31T07:38:16.126Z,17.5
2022-08-31T07:39:13.054Z,17.5
2022-08-31T07:40:12.669Z,17.6
2022-08-31T07:41:15.336Z,17.6
2022-08-31T07:42:13.019Z,17.6
2022-08-31T07:43:14.106Z,17.6
2022-08-31T07:44:07.583Z,17.6
2022-08-31T07:45:15.904Z,17.6
2022-08-31T07:46:14.985Z,17.6
2022-08-31T07:47:13.411Z,17.6
2022-08-31T07:48:14.620Z,17.6
2022-08-31T07:49:11.965Z,17.6
2022-08-31T07:50:16.441Z,17.6
2022-08-31T07:51:09.162Z,17.6
2022-08-31T07:52:13.922Z,17.7
2022-08-31T07:53:13.263Z,17.8
2022-08-31T07:54:11.079Z,17.8
2022-08-31T07:55:16.289Z,17.8
2022-08-31T07:56:14.567Z,17.8
2022-08-31T07:57:15.681Z,17.8
2022-08-31T07:58:12.121Z,17.8
2022-08-31T07:59:15.298Z,17.8
2022-08-31T08:00:06.634Z,17.8
2022-08-31T08:01:14.164Z,17.8
2022-08-31T08:02:20.027Z,17.8
2022-08-31T08:03:15.407Z,17.9
2022-08-31T08:04:13.050Z,18
2022-08-31T08:05:14.402Z,18
2022-08-31T08:06:17.632Z,18
2022-08-31T08:07:14.430Z,18
2022-08-31T08:08:17.979Z,17.9
2022-08-31T08:09:28.551Z,17.9
2022-08-31T08:10:11.763Z,17.9
2022-08-31T08:11:21.017Z,17.9
2022-08-31T08:12:09.825Z,17.9
2022-08-31T08:13:17.129Z,18
2022-08-31T08:14:13.064Z,18.1
2022-08-31T08:15:15.844Z,18.1
2022-08-31T08:16:10.466Z,18.1
2022-08-31T08:17:14.122Z,18.2
2022-08-31T08:18:14.734Z,18.2
2022-08-31T08:19:10.893Z,18.1
2022-08-31T08:20:17.919Z,18
2022-08-31T08:21:13.663Z,18
2022-08-31T08:22:50.646Z,18
2022-08-31T08:23:16.368Z,18.1
2022-08-31T08:24:18.566Z,18.1
2022-08-31T08:25:11.604Z,18.1
2022-08-31T08:26:28.478Z,18.3
2022-08-31T08:27:14.983Z,18.3
2022-08-31T08:28:43.299Z,18.2
2022-08-31T08:30:09.767Z,18.3
2022-08-31T08:31:14.615Z,18.3
2022-08-31T08:32:21.378Z,18.1
2022-08-31T08:33:17.234Z,18.1
2022-08-31T08:34:12.385Z,18.2
2022-08-31T08:35:17.604Z,18.2
2022-08-31T08:36:07.744Z,18.3
2022-08-31T08:37:17.874Z,18.3
2022-08-31T08:38:11.972Z,18.3
2022-08-31T08:39:20.498Z,18.4
2022-08-31T08:40:11.924Z,18.4
2022-08-31T08:41:14.245Z,18.3
2022-08-31T08:42:06.596Z,18.3
2022-08-31T08:43:16.568Z,18.3
2022-08-31T08:44:16.812Z,18.4
2022-08-31T08:45:13.961Z,18.4
2022-08-31T08:46:35.559Z,18.6
2022-08-31T08:47:12.400Z,18.6
2022-08-31T08:48:12.812Z,18.6
2022-08-31T08:49:13.244Z,18.6
2022-08-31T08:50:10.542Z,18.7
2022-08-31T08:51:13.416Z,18.8
2022-08-31T08:52:14.743Z,18.7
2022-08-31T08:53:15.810Z,18.7
2022-08-31T08:54:14.049Z,18.8
2022-08-31T08:55:14.966Z,18.9
2022-08-31T08:56:36.492Z,18.9
2022-08-31T08:57:13.215Z,18.9
2022-08-31T08:58:15.451Z,18.9
2022-08-31T08:59:21.342Z,18.9
2022-08-31T09:00:15.631Z,18.8
2022-08-31T09:01:21.266Z,18.8
2022-08-31T09:02:09.188Z,18.8
2022-08-31T09:03:15.430Z,18.8
2022-08-31T09:04:14.051Z,18.9
2022-08-31T09:05:16.071Z,18.9
2022-08-31T09:06:11.262Z,19.1
2022-08-31T09:07:16.826Z,19.1
2022-08-31T09:08:15.508Z,19.2
2022-08-31T09:09:20.278Z,19.3
2022-08-31T09:10:06.839Z,19.3
2022-08-31T09:11:14.688Z,19.3
2022-08-31T09:12:14.933Z,19.3
2022-08-31T09:13:15.995Z,19.3
2022-08-31T09:14:14.406Z,19.3
2022-08-31T09:15:15.119Z,19.4
2022-08-31T09:16:11.930Z,19.4
2022-08-31T09:17:17.206Z,19.4
2022-08-31T09:18:14.532Z,19.5
2022-08-31T09:19:14.996Z,19.4
2022-08-31T09:20:12.966Z,19.3
2022-08-31T09:21:15.284Z,19.3
2022-08-31T09:22:13.163Z,19.5
2022-08-31T09:23:13.635Z,19.4
2022-08-31T09:24:12.240Z,19.4
2022-08-31T09:25:17.462Z,19.4
2022-08-31T09:26:14.930Z,19.5
2022-08-31T09:27:13.434Z,19.5
2022-08-31T09:28:13.567Z,19.6
2022-08-31T09:29:13.155Z,19.6
2022-08-31T09:30:13.312Z,19.5
2022-08-31T09:31:12.482Z,19.5
2022-08-31T09:32:12.263Z,19.5
2022-08-31T09:33:15.923Z,19.5
2022-08-31T09:34:14.217Z,19.4
2022-08-31T09:35:15.951Z,19.4
2022-08-31T09:36:15.626Z,19.4
2022-08-31T09:37:13.651Z,19.4
2022-08-31T09:38:15.055Z,19.4
2022-08-31T09:39:13.309Z,19.5
2022-08-31T09:40:12.748Z,19.5
2022-08-31T09:41:16.956Z,19.5
2022-08-31T09:42:15.608Z,19.4
2022-08-31T09:43:17.931Z,19.4
2022-08-31T09:44:17.446Z,19.4
2022-08-31T09:45:09.218Z,19.4
2022-08-31T09:46:12.884Z,19.4
2022-08-31T09:47:13.862Z,19.4
2022-08-31T09:48:12.347Z,19.4
2022-08-31T09:49:15.364Z,19.5
2022-08-31T09:50:18.133Z,19.5
2022-08-31T09:51:16.652Z,19.4
2022-08-31T09:52:15.697Z,19.5
2022-08-31T09:53:09.465Z,19.5
2022-08-31T09:54:16.620Z,19.4
2022-08-31T09:55:13.307Z,19.4
2022-08-31T09:56:14.452Z,19.4
2022-08-31T09:57:14.364Z,19.4
2022-08-31T09:58:13.171Z,19.4
2022-08-31T09:59:12.671Z,19.3
2022-08-31T10:00:15.719Z,19.3
2022-08-31T10:01:13.592Z,19.3
2022-08-31T10:02:14.388Z,19.3
2022-08-31T10:03:11.643Z,19.3
2022-08-31T10:04:16.180Z,19.2
2022-08-31T10:05:11.442Z,19.2
2022-08-31T10:06:18.508Z,19.2
2022-08-31T10:07:13.079Z,19.2
2022-08-31T10:08:19.638Z,19.2
2022-08-31T10:09:19.267Z,19.2
2022-08-31T10:10:33.949Z,19.3
2022-08-31T10:11:10.503Z,19.3
2022-08-31T10:12:17.756Z,19.3
2022-08-31T10:13:13.817Z,19.3
2022-08-31T10:14:12.351Z,19.2
2022-08-31T10:15:19.585Z,19.2
2022-08-31T10:16:12.899Z,19.2
2022-08-31T10:17:16.937Z,19.3
2022-08-31T10:18:11.909Z,19.1
2022-08-31T10:19:12.895Z,19.1
2022-08-31T10:20:16.857Z,19.2
2022-08-31T10:21:13.282Z,19.2
2022-08-31T10:22:11.950Z,19.2
2022-08-31T10:23:18.422Z,19.3
2022-08-31T10:24:09.975Z,19.3
2022-08-31T10:25:13.551Z,19.2
2022-08-31T10:26:16.429Z,19.2
2022-08-31T10:27:14.478Z,19.1
2022-08-31T10:28:16.184Z,19.1
2022-08-31T10:29:14.714Z,19.1
2022-08-31T10:30:15.013Z,19.1
2022-08-31T10:31:09.599Z,19.1
2022-08-31T10:32:15.861Z,19.1
2022-08-31T10:33:15.188Z,19.1
2022-08-31T10:34:14.472Z,19.1
2022-08-31T10:35:11.178Z,19.1
2022-08-31T10:36:11.164Z,19.1
2022-08-31T10:37:13.638Z,19.1
2022-08-31T10:38:16.805Z,19
2022-08-31T10:39:07.574Z,19
2022-08-31T10:40:14.897Z,18.9
2022-08-31T10:41:14.936Z,19
2022-08-31T10:42:17.482Z,18.9
2022-08-31T10:43:07.809Z,18.9
2022-08-31T10:44:14.807Z,18.9
2022-08-31T10:45:06.744Z,18.9
2022-08-31T10:46:14.229Z,18.8
2022-08-31T10:47:36.035Z,18.8
2022-08-31T10:48:10.945Z,18.7
2022-08-31T10:49:12.741Z,18.6
2022-08-31T10:51:17.361Z,18.4
2022-08-31T10:51:18.357Z,18.6
2022-08-31T10:52:13.589Z,18.4
2022-08-31T10:53:15.366Z,18.3
2022-08-31T10:54:14.096Z,18.1
2022-08-31T10:55:14.515Z,18.1
2022-08-31T10:56:09.731Z,18.1
2022-08-31T10:57:26.102Z,18.1
2022-08-31T10:58:11.234Z,18.1
2022-08-31T10:59:14.814Z,18.1
2022-08-31T11:00:07.509Z,18.1
2022-08-31T11:01:18.715Z,18
2022-08-31T11:02:08.427Z,18
2022-08-31T11:03:12.483Z,17.9
2022-08-31T11:04:10.812Z,17.9
2022-08-31T11:05:12.484Z,17.9
2022-08-31T11:06:13.561Z,17.8
2022-08-31T11:07:13.601Z,17.8
2022-08-31T11:08:15.788Z,17.8
2022-08-31T11:09:17.144Z,17.8
2022-08-31T11:10:10.770Z,17.8
2022-08-31T11:11:14.798Z,17.9
2022-08-31T11:12:07.509Z,17.9
2022-08-31T11:13:12.074Z,18
2022-08-31T11:14:14.843Z,18
2022-08-31T11:15:13.566Z,17.9
2022-08-31T11:16:13.333Z,17.9
2022-08-31T11:17:17.188Z,17.9
2022-08-31T11:18:10.206Z,17.9
2022-08-31T11:19:18.797Z,17.9
2022-08-31T11:20:11.533Z,17.9
2022-08-31T11:21:11.748Z,17.9
2022-08-31T11:22:13.939Z,17.8
2022-08-31T11:23:13.624Z,17.8
2022-08-31T11:24:22.979Z,17.7
2022-08-31T11:25:11.253Z,17.7
2022-08-31T11:26:15.190Z,17.7
2022-08-31T11:27:16.930Z,17.7
2022-08-31T11:28:13.667Z,17.7
2022-08-31T11:29:14.527Z,17.7
2022-08-31T11:30:11.163Z,17.8
2022-08-31T11:31:16.638Z,17.8
2022-08-31T11:32:12.297Z,17.8
2022-08-31T11:33:14.846Z,17.8
2022-08-31T11:34:24.831Z,17.8
2022-08-31T11:35:16.828Z,17.9
2022-08-31T11:36:13.076Z,17.9
2022-08-31T11:37:18.298Z,17.8
2022-08-31T11:38:07.897Z,17.8
2022-08-31T11:39:16.090Z,17.8
2022-08-31T11:40:15.648Z,17.8
2022-08-31T11:41:14.523Z,17.8
2022-08-31T11:42:15.792Z,17.8
2022-08-31T11:43:15.357Z,17.8
2022-08-31T11:44:17.837Z,17.8
2022-08-31T11:45:16.301Z,17.8
2022-08-31T11:46:21.944Z,17.6
2022-08-31T11:47:09.219Z,17.7
2022-08-31T11:48:15.065Z,17.7
2022-08-31T11:49:13.839Z,17.7
2022-08-31T11:50:12.169Z,17.7
2022-08-31T11:51:15.827Z,17.7
2022-08-31T11:52:07.396Z,17.7
2022-08-31T11:53:15.213Z,17.7
2022-08-31T11:54:13.006Z,17.7
2022-08-31T11:55:13.191Z,17.5
2022-08-31T11:56:07.578Z,17.5
2022-08-31T11:57:14.051Z,17.6
2022-08-31T11:58:13.390Z,17.5
2022-08-31T11:59:16.908Z,17.5
2022-08-31T12:00:12.791Z,17.4
2022-08-31T12:01:13.880Z,17.3
2022-08-31T12:02:15.275Z,17.3
2022-08-31T12:03:14.529Z,17.3
2022-08-31T12:04:11.078Z,17.3
2022-08-31T12:05:12.343Z,17.4
2022-08-31T12:06:12.768Z,17.3
2022-08-31T12:07:13.443Z,17.4
2022-08-31T12:08:13.276Z,17.4
2022-08-31T12:09:21.940Z,17.4
2022-08-31T12:10:10.396Z,17.3
2022-08-31T12:11:16.344Z,17.4
2022-08-31T12:12:14.144Z,17.4
2022-08-31T12:13:16.015Z,17.3
2022-08-31T12:14:16.943Z,17.3
2022-08-31T12:15:09.434Z,17.2
2022-08-31T12:16:12.611Z,17.3
2022-08-31T12:17:10.272Z,17.3
2022-08-31T12:18:13.377Z,17.3
2022-08-31T12:19:15.758Z,17.3
2022-08-31T12:20:10.094Z,17.3
2022-08-31T12:21:12.587Z,17.2
2022-08-31T12:22:15.081Z,17.2
2022-08-31T12:23:33.709Z,17.2
2022-08-31T12:24:20.895Z,17.1
2022-08-31T12:25:13.159Z,17.1
2022-08-31T12:26:16.046Z,17.1
2022-08-31T12:27:15.447Z,16.9
2022-08-31T12:28:13.017Z,16.9
2022-08-31T12:29:13.387Z,16.9
2022-08-31T12:30:14.152Z,16.9
2022-08-31T12:31:15.478Z,16.9
2022-08-31T12:32:15.238Z,16.9
2022-08-31T12:33:14.683Z,17.1
2022-08-31T12:34:13.299Z,16.9
2022-08-31T12:35:12.907Z,16.9
2022-08-31T12:36:15.954Z,16.9
2022-08-31T12:37:14.391Z,17
2022-08-31T12:38:15.216Z,16.9
2022-08-31T12:39:19.117Z,16.9
2022-08-31T12:40:09.211Z,16.9
2022-08-31T12:41:18.797Z,16.9
2022-08-31T12:42:07.759Z,16.9
2022-08-31T12:43:16.680Z,17
2022-08-31T12:44:18.436Z,17
2022-08-31T12:45:16.173Z,16.9
2022-08-31T12:46:09.301Z,16.9
2022-08-31T12:47:15.828Z,16.8
2022-08-31T12:48:14.889Z,16.8
2022-08-31T12:49:13.122Z,16.7
2022-08-31T12:50:10.549Z,16.7
2022-08-31T12:51:14.980Z,16.7
2022-08-31T12:52:13.631Z,16.7
2022-08-31T12:53:14.755Z,16.5
2022-08-31T12:54:11.802Z,16.5
2022-08-31T12:55:14.615Z,16.6
2022-08-31T12:56:12.983Z,16.6
2022-08-31T12:57:25.678Z,16.8
2022-08-31T12:58:16.183Z,16.7
2022-08-31T12:59:14.609Z,16.8
2022-08-31T13:00:17.278Z,16.7
2022-08-31T13:01:17.336Z,16.7
2022-08-31T13:02:14.181Z,16.8
2022-08-31T13:03:13.834Z,16.8
2022-08-31T13:04:13.157Z,16.8
2022-08-31T13:05:14.497Z,16.8
2022-08-31T13:06:14.325Z,16.6
2022-08-31T13:07:10.405Z,16.6
2022-08-31T13:08:15.389Z,16.5
2022-08-31T13:09:14.390Z,16.6
2022-08-31T13:10:16.477Z,16.5
2022-08-31T13:11:14.704Z,16.5
2022-08-31T13:12:18.142Z,16.4
2022-08-31T13:13:13.570Z,16.3
2022-08-31T13:14:14.862Z,16.3
2022-08-31T13:15:18.550Z,16.5
2022-08-31T13:16:08.048Z,16.5
2022-08-31T13:17:17.919Z,16.4
2022-08-31T13:18:14.132Z,16.4
2022-08-31T13:19:14.736Z,16.4
2022-08-31T13:20:14.390Z,16.4
2022-08-31T13:21:17.694Z,16.4
2022-08-31T13:22:16.032Z,16.4
2022-08-31T13:23:16.212Z,16.4
2022-08-31T13:24:13.205Z,16.4